createdAt,value
2018-06-04T00:00:42.533Z,19.70
2018-06-04T00:01:42.549Z,20.90
2018-06-04T00:02:42.564Z,21.90
2018-06-04T00:03:42.580Z,20.60
2018-06-04T00:04:42.609Z,20.20
2018-06-04T00:05:42.616Z,20.60
2018-06-04T00:06:42.630Z,20.40
2018-06-04T00:07:42.648Z,21.20
2018-06-04T00:08:42.779Z,20.80
2018-06-04T00:09:42.798Z,21.30
2018-06-04T00:10:42.832Z,21.40
2018-06-04T00:11:42.908Z,20.60
2018-06-04T00:12:42.914Z,21.20
2018-06-04T00:13:42.762Z,22.30
2018-06-04T00:14:42.768Z,21.70
2018-06-04T00:15:42.787Z,22.10
2018-06-04T00:16:42.807Z,21.20
2018-06-04T00:17:42.827Z,21.60
2018-06-04T00:18:42.838Z,21.20
2018-06-04T00:19:42.855Z,22.00
2018-06-04T00:20:42.874Z,22.10
2018-06-04T00:21:43.092Z,21.60
2018-06-04T00:22:42.912Z,21.30
2018-06-04T00:23:42.924Z,21.10
2018-06-04T00:24:42.944Z,22.30
2018-06-04T00:25:42.962Z,21.00
2018-06-04T00:26:42.981Z,20.60
2018-06-04T00:27:42.998Z,22.40
2018-06-04T00:28:43.008Z,21.30
2018-06-04T00:29:43.035Z,21.60
2018-06-04T00:30:43.043Z,21.50
2018-06-04T00:31:43.075Z,21.00
2018-06-04T00:32:43.079Z,21.30
2018-06-04T00:33:43.096Z,21.70
2018-06-04T00:34:43.112Z,21.30
2018-06-04T00:35:43.130Z,21.20
2018-06-04T00:36:43.148Z,21.70
2018-06-04T00:37:43.167Z,21.70
2018-06-04T00:38:43.181Z,21.90
2018-06-04T00:39:43.195Z,21.50
2018-06-04T00:40:43.213Z,21.10
2018-06-04T00:41:43.397Z,21.30
2018-06-04T00:42:43.572Z,21.40
2018-06-04T00:43:43.283Z,22.00
2018-06-04T00:44:43.282Z,22.10
2018-06-04T00:45:43.301Z,22.30
2018-06-04T00:46:43.316Z,22.80
2018-06-04T00:47:43.340Z,23.00
2018-06-04T00:48:43.355Z,22.20
2018-06-04T00:49:43.366Z,22.80
2018-06-04T00:50:43.389Z,22.80
2018-06-04T00:51:43.402Z,22.90
2018-06-04T00:52:43.420Z,22.80
2018-06-04T00:53:43.434Z,21.80
2018-06-04T00:54:43.454Z,22.10
2018-06-04T00:55:43.468Z,22.80
2018-06-04T00:56:43.485Z,22.10
2018-06-04T00:57:43.503Z,23.00
2018-06-04T00:58:43.525Z,21.90
2018-06-04T00:59:43.545Z,22.60
2018-06-04T01:00:43.562Z,23.90
2018-06-04T01:01:43.575Z,22.80
2018-06-04T01:02:43.591Z,23.00
2018-06-04T01:03:43.610Z,23.60
2018-06-04T01:04:43.625Z,23.60
2018-06-04T01:05:43.641Z,23.60
2018-06-04T01:06:43.662Z,24.90
2018-06-04T01:07:43.683Z,24.20
2018-06-04T01:08:43.693Z,23.50
2018-06-04T01:09:43.709Z,23.90
2018-06-04T01:10:43.731Z,22.10
2018-06-04T01:11:43.745Z,23.00
2018-06-04T01:12:43.787Z,24.20
2018-06-04T01:13:43.938Z,24.00
2018-06-04T01:14:43.796Z,23.40
2018-06-04T01:15:43.824Z,23.50
2018-06-04T01:16:43.827Z,23.10
2018-06-04T01:17:43.845Z,23.40
2018-06-04T01:18:43.909Z,24.80
2018-06-04T01:19:43.908Z,23.00
2018-06-04T01:20:43.896Z,24.10
2018-06-04T01:21:43.911Z,23.60
2018-06-04T01:22:43.930Z,23.60
2018-06-04T01:23:43.945Z,24.00
2018-06-04T01:24:43.963Z,23.10
2018-06-04T01:25:44.029Z,24.40
2018-06-04T01:26:43.996Z,24.20
2018-06-04T01:27:44.014Z,23.20
2018-06-04T01:28:44.029Z,23.70
2018-06-04T01:29:44.053Z,23.70
2018-06-04T01:30:44.063Z,22.60
2018-06-04T01:31:44.089Z,23.30
2018-06-04T01:32:44.099Z,24.40
2018-06-04T01:33:44.116Z,24.30
2018-06-04T01:34:44.135Z,24.20
2018-06-04T01:35:44.149Z,23.50
2018-06-04T01:36:44.166Z,24.50
2018-06-04T01:37:44.190Z,24.00
2018-06-04T01:38:44.200Z,23.60
2018-06-04T01:39:44.217Z,25.00
2018-06-04T01:40:44.233Z,25.00
2018-06-04T01:41:44.254Z,23.20
2018-06-04T01:42:44.267Z,25.60
2018-06-04T01:43:44.287Z,24.60
2018-06-04T01:44:44.305Z,25.10
2018-06-04T01:45:44.668Z,25.50
2018-06-04T01:46:44.358Z,25.10
2018-06-04T01:47:44.383Z,24.80
2018-06-04T01:48:44.379Z,24.40
2018-06-04T01:49:44.388Z,25.20
2018-06-04T01:50:44.411Z,25.90
2018-06-04T01:51:44.426Z,25.80
2018-06-04T01:52:44.438Z,26.50
2018-06-04T01:53:44.457Z,25.60
2018-06-04T01:54:44.473Z,25.20
2018-06-04T01:55:44.498Z,25.40
2018-06-04T01:56:44.509Z,25.90
2018-06-04T01:57:44.521Z,26.40
2018-06-04T01:58:44.539Z,25.50
2018-06-04T01:59:44.559Z,26.10
2018-06-04T02:00:44.573Z,25.60
2018-06-04T02:01:44.900Z,26.20
2018-06-04T02:02:44.606Z,25.50
2018-06-04T02:03:44.623Z,26.90
2018-06-04T02:04:44.641Z,25.40
2018-06-04T02:05:44.656Z,26.50
2018-06-04T02:06:44.673Z,25.90
2018-06-04T02:07:44.695Z,26.10
2018-06-04T02:08:44.708Z,27.20
2018-06-04T02:09:44.722Z,27.30
2018-06-04T02:10:44.739Z,25.80
2018-06-04T02:11:44.757Z,28.10
2018-06-04T02:12:44.778Z,27.70
2018-06-04T02:13:44.790Z,28.20
2018-06-04T02:14:44.807Z,27.00
2018-06-04T02:15:44.825Z,27.20
2018-06-04T02:16:44.842Z,27.50
2018-06-04T02:17:44.859Z,28.30
2018-06-04T02:18:44.876Z,27.80
2018-06-04T02:19:44.916Z,27.80
2018-06-04T02:20:44.954Z,27.50
2018-06-04T02:21:44.926Z,27.60
2018-06-04T02:22:44.946Z,28.80
2018-06-04T02:23:44.972Z,29.20
2018-06-04T02:24:44.976Z,28.70
2018-06-04T02:25:44.996Z,29.10
2018-06-04T02:26:45.013Z,27.60
2018-06-04T02:27:45.031Z,27.80
2018-06-04T02:28:45.049Z,28.50
2018-06-04T02:29:45.053Z,28.10
2018-06-04T02:30:45.073Z,28.90
2018-06-04T02:31:45.089Z,27.60
2018-06-04T02:32:45.103Z,28.20
2018-06-04T02:33:45.123Z,27.70
2018-06-04T02:34:45.142Z,28.70
2018-06-04T02:35:45.154Z,27.60
2018-06-04T02:36:45.171Z,28.70
2018-06-04T02:37:45.192Z,28.20
2018-06-04T02:38:45.202Z,28.00
2018-06-04T02:39:45.219Z,28.30
2018-06-04T02:40:45.240Z,28.70
2018-06-04T02:41:45.260Z,28.40
2018-06-04T02:42:45.268Z,29.40
2018-06-04T02:43:45.287Z,28.10
2018-06-04T02:44:45.304Z,28.40
2018-06-04T02:45:45.320Z,29.10
2018-06-04T02:46:45.339Z,29.10
2018-06-04T02:47:45.357Z,27.80
2018-06-04T02:48:45.371Z,28.80
2018-06-04T02:49:45.433Z,28.70
2018-06-04T02:50:45.405Z,28.70
2018-06-04T02:51:45.544Z,28.90
2018-06-04T02:52:45.440Z,27.90
2018-06-04T02:53:45.473Z,28.30
2018-06-04T02:54:45.471Z,28.60
2018-06-04T02:55:45.490Z,28.60
2018-06-04T02:56:45.507Z,28.40
2018-06-04T02:57:45.523Z,28.20
2018-06-04T02:58:45.540Z,29.00
2018-06-04T02:59:45.557Z,28.70
2018-06-04T03:00:45.573Z,29.70
2018-06-04T03:01:45.589Z,30.00
2018-06-04T03:02:45.604Z,29.60
2018-06-04T03:03:45.622Z,29.30
2018-06-04T03:04:45.637Z,29.80
2018-06-04T03:05:45.662Z,30.60
2018-06-04T03:06:45.670Z,28.90
2018-06-04T03:07:45.692Z,29.20
2018-06-04T03:08:45.705Z,29.80
2018-06-04T03:09:45.719Z,29.40
2018-06-04T03:10:45.738Z,30.40
2018-06-04T03:11:45.754Z,29.60
2018-06-04T03:12:45.771Z,28.70
2018-06-04T03:13:45.789Z,29.10
2018-06-04T03:14:45.807Z,29.10
2018-06-04T03:15:45.819Z,30.10
2018-06-04T03:16:45.837Z,28.90
2018-06-04T03:17:45.854Z,29.80
2018-06-04T03:18:45.869Z,29.40
2018-06-04T03:19:45.889Z,29.60
2018-06-04T03:20:45.903Z,29.80
2018-06-04T03:21:45.921Z,29.50
2018-06-04T03:22:45.937Z,29.80
2018-06-04T03:23:45.952Z,29.20
2018-06-04T03:24:45.971Z,29.20
2018-06-04T03:25:45.986Z,30.10
2018-06-04T03:26:46.008Z,29.90
2018-06-04T03:27:46.050Z,29.50
2018-06-04T03:28:46.072Z,29.40
2018-06-04T03:29:46.070Z,29.30
2018-06-04T03:30:46.070Z,30.10
2018-06-04T03:31:46.091Z,30.30
2018-06-04T03:32:46.102Z,31.00
2018-06-04T03:33:46.117Z,30.60
2018-06-04T03:34:46.170Z,31.00
2018-06-04T03:35:46.152Z,30.50
2018-06-04T03:36:46.168Z,30.80
2018-06-04T03:37:46.184Z,31.20
2018-06-04T03:38:46.202Z,32.20
2018-06-04T03:39:46.218Z,32.00
2018-06-04T03:40:46.236Z,31.10
2018-06-04T03:41:46.252Z,31.50
2018-06-04T03:42:46.279Z,32.00
2018-06-04T03:43:46.357Z,32.30
2018-06-04T03:44:46.398Z,30.80
2018-06-04T03:45:46.440Z,32.70
2018-06-04T03:46:46.386Z,31.90
2018-06-04T03:47:46.419Z,31.40
2018-06-04T03:48:46.369Z,31.90
2018-06-04T03:49:46.384Z,31.10
2018-06-04T03:50:46.401Z,32.70
2018-06-04T03:51:46.425Z,32.60
2018-06-04T03:52:46.437Z,32.30
2018-06-04T03:53:46.454Z,31.30
2018-06-04T03:54:46.467Z,32.20
2018-06-04T03:55:46.484Z,31.60
2018-06-04T03:56:46.500Z,33.70
2018-06-04T03:57:46.521Z,33.10
2018-06-04T03:58:46.552Z,32.10
2018-06-04T03:59:46.779Z,31.90
2018-06-04T04:00:46.646Z,32.60
2018-06-04T04:01:46.676Z,31.70
2018-06-04T04:02:46.673Z,31.90
2018-06-04T04:03:46.683Z,32.30
2018-06-04T04:04:46.636Z,32.50
2018-06-04T04:05:46.648Z,32.40
2018-06-04T04:06:46.668Z,31.90
2018-06-04T04:07:46.688Z,31.90
2018-06-04T04:08:46.699Z,32.50
2018-06-04T04:09:46.717Z,31.70
2018-06-04T04:10:46.730Z,32.60
2018-06-04T04:11:46.749Z,32.40
2018-06-04T04:12:46.775Z,33.20
2018-06-04T04:13:46.881Z,32.60
2018-06-04T04:14:46.797Z,33.50
2018-06-04T04:15:46.815Z,32.00
2018-06-04T04:16:46.831Z,32.70
2018-06-04T04:17:46.847Z,33.00
2018-06-04T04:18:46.868Z,31.60
2018-06-04T04:19:46.878Z,33.00
2018-06-04T04:20:46.897Z,33.40
2018-06-04T04:21:46.916Z,33.30
2018-06-04T04:22:46.929Z,33.50
2018-06-04T04:23:46.947Z,32.80
2018-06-04T04:24:46.965Z,33.10
2018-06-04T04:25:46.996Z,33.30
2018-06-04T04:26:47.001Z,33.10
2018-06-04T04:27:47.038Z,32.90
2018-06-04T04:28:47.668Z,33.20
2018-06-04T04:29:47.097Z,32.60
2018-06-04T04:30:47.369Z,32.10
2018-06-04T04:31:47.082Z,32.40
2018-06-04T04:32:47.174Z,32.10
2018-06-04T04:33:47.167Z,32.10
2018-06-04T04:34:47.131Z,33.40
2018-06-04T04:35:47.146Z,31.40
2018-06-04T04:36:47.163Z,32.70
2018-06-04T04:37:47.266Z,31.60
2018-06-04T04:38:47.232Z,31.10
2018-06-04T04:39:47.269Z,33.20
2018-06-04T04:40:47.281Z,31.70
2018-06-04T04:41:47.249Z,32.40
2018-06-04T04:42:47.268Z,31.50
2018-06-04T04:43:47.284Z,32.40
2018-06-04T04:44:47.299Z,31.70
2018-06-04T04:45:47.314Z,31.30
2018-06-04T04:46:47.332Z,31.90
2018-06-04T04:47:47.346Z,31.70
2018-06-04T04:48:47.414Z,32.20
2018-06-04T04:49:47.381Z,30.70
2018-06-04T04:50:47.403Z,31.20
2018-06-04T04:51:47.415Z,31.60
2018-06-04T04:52:47.431Z,31.70
2018-06-04T04:53:47.449Z,32.20
2018-06-04T04:54:47.465Z,31.20
2018-06-04T04:55:47.480Z,32.40
2018-06-04T04:56:47.517Z,31.30
2018-06-04T04:57:47.536Z,30.60
2018-06-04T04:58:47.893Z,31.90
2018-06-04T04:59:47.554Z,31.30
2018-06-04T05:00:47.685Z,31.80
2018-06-04T05:02:47.611Z,31.00
2018-06-04T05:03:47.616Z,31.20
2018-06-04T05:04:47.660Z,32.00
2018-06-04T05:05:47.658Z,30.60
2018-06-04T05:06:47.693Z,30.10
2018-06-04T05:07:47.680Z,30.70
2018-06-04T05:08:47.709Z,29.90
2018-06-04T05:09:47.716Z,30.60
2018-06-04T05:10:47.729Z,30.80
2018-06-04T05:11:47.747Z,29.60
2018-06-04T05:12:47.764Z,30.30
2018-06-04T05:13:47.800Z,30.90
2018-06-04T05:14:47.799Z,30.10
2018-06-04T05:15:47.814Z,30.30
2018-06-04T05:16:47.839Z,30.80
2018-06-04T05:17:47.850Z,29.70
2018-06-04T05:18:47.878Z,29.50
2018-06-04T05:19:47.882Z,29.70
2018-06-04T05:20:47.899Z,28.60
2018-06-04T05:21:47.919Z,30.80
2018-06-04T05:22:47.931Z,29.20
2018-06-04T05:23:47.954Z,28.80
2018-06-04T05:24:47.966Z,30.40
2018-06-04T05:25:47.982Z,30.90
2018-06-04T05:26:47.998Z,30.60
2018-06-04T05:27:48.015Z,30.40
2018-06-04T05:28:48.036Z,31.00
2018-06-04T05:29:48.052Z,29.80
2018-06-04T05:30:48.070Z,30.20
2018-06-04T05:31:48.121Z,30.70
2018-06-04T05:32:48.099Z,30.00
2018-06-04T05:33:48.116Z,29.80
2018-06-04T05:34:48.137Z,29.50
2018-06-04T05:35:48.155Z,30.00
2018-06-04T05:36:48.245Z,30.00
2018-06-04T05:37:48.273Z,29.40
2018-06-04T05:38:48.251Z,29.90
2018-06-04T05:39:48.220Z,29.20
2018-06-04T05:40:48.236Z,30.10
2018-06-04T05:41:48.261Z,29.30
2018-06-04T05:42:48.271Z,28.90
2018-06-04T05:43:48.301Z,29.90
2018-06-04T05:44:48.313Z,31.40
2018-06-04T05:45:48.318Z,28.50
2018-06-04T05:46:48.347Z,30.60
2018-06-04T05:47:48.352Z,29.70
2018-06-04T05:48:48.386Z,30.10
2018-06-04T05:49:48.407Z,29.90
2018-06-04T05:50:48.403Z,30.60
2018-06-04T05:51:48.419Z,30.20
2018-06-04T05:52:48.437Z,28.70
2018-06-04T05:53:48.452Z,30.70
2018-06-04T05:54:48.575Z,30.30
2018-06-04T05:55:48.486Z,28.90
2018-06-04T05:56:48.735Z,29.70
2018-06-04T05:57:48.607Z,30.80
2018-06-04T05:58:49.345Z,28.90
2018-06-04T06:00:48.575Z,29.30
2018-06-04T06:02:48.647Z,29.70
2018-06-04T06:03:48.634Z,29.10
2018-06-04T06:04:48.644Z,29.30
2018-06-04T06:05:48.655Z,30.90
2018-06-04T06:06:48.673Z,30.30
2018-06-04T06:07:48.696Z,29.50
2018-06-04T06:08:48.777Z,30.30
2018-06-04T06:09:48.768Z,31.00
2018-06-04T06:10:48.774Z,29.70
2018-06-04T06:11:48.755Z,30.70
2018-06-04T06:12:48.775Z,30.30
2018-06-04T06:13:48.790Z,31.10
2018-06-04T06:14:48.807Z,28.80
2018-06-04T06:15:48.870Z,29.10
2018-06-04T06:16:48.858Z,29.10
2018-06-04T06:17:48.877Z,30.80
2018-06-04T06:18:48.876Z,28.40
2018-06-04T06:19:48.902Z,30.40
2018-06-04T06:20:48.907Z,29.40
2018-06-04T06:21:48.925Z,29.80
2018-06-04T06:22:48.958Z,29.00
2018-06-04T06:23:48.966Z,29.20
2018-06-04T06:24:48.979Z,28.70
2018-06-04T06:25:48.998Z,29.20
2018-06-04T06:26:49.033Z,31.20
2018-06-04T06:27:49.026Z,28.60
2018-06-04T06:28:49.044Z,29.10
2018-06-04T06:29:49.063Z,29.20
2018-06-04T06:30:49.098Z,29.50
2018-06-04T06:31:49.300Z,29.10
2018-06-04T06:32:49.117Z,29.00
2018-06-04T06:33:49.128Z,28.90
2018-06-04T06:34:49.151Z,29.70
2018-06-04T06:35:49.624Z,28.30
2018-06-04T06:36:49.184Z,29.40
2018-06-04T06:37:49.196Z,28.30
2018-06-04T06:38:50.411Z,27.50
2018-06-04T06:39:49.290Z,28.10
2018-06-04T06:40:49.321Z,29.20
2018-06-04T06:41:49.264Z,28.30
2018-06-04T06:43:49.399Z,28.30
2018-06-04T06:44:49.632Z,28.50
2018-06-04T06:45:49.389Z,29.40
2018-06-04T06:46:49.990Z,29.40
2018-06-04T06:47:51.533Z,29.80
2018-06-04T06:48:49.384Z,30.70
2018-06-04T06:49:50.487Z,29.50
2018-06-04T06:50:50.248Z,28.90
2018-06-04T06:51:49.475Z,29.60
2018-06-04T06:52:49.454Z,29.60
2018-06-04T06:53:49.470Z,29.70
2018-06-04T06:54:49.507Z,29.90
2018-06-04T06:55:49.504Z,29.70
2018-06-04T06:56:49.522Z,29.30
2018-06-04T06:57:49.556Z,29.70
2018-06-04T06:58:49.603Z,30.30
2018-06-04T06:59:49.585Z,29.60
2018-06-04T07:00:49.610Z,28.70
2018-06-04T07:01:49.795Z,29.70
2018-06-04T07:02:49.626Z,28.10
2018-06-04T07:03:49.643Z,28.80
2018-06-04T07:04:49.769Z,29.20
2018-06-04T07:05:49.674Z,28.70
2018-06-04T07:06:49.899Z,29.10
2018-06-04T07:07:49.710Z,28.30
2018-06-04T07:08:49.733Z,28.20
2018-06-04T07:09:49.768Z,29.90
2018-06-04T07:10:49.786Z,29.10
2018-06-04T07:12:49.863Z,30.60
2018-06-04T07:13:50.061Z,31.00
2018-06-04T07:14:49.953Z,30.30
2018-06-04T07:15:51.579Z,31.30
2018-06-04T07:16:50.067Z,30.00
2018-06-04T07:17:50.079Z,29.40
2018-06-04T07:18:50.926Z,30.10
2018-06-04T07:19:49.914Z,30.30
2018-06-04T07:21:50.352Z,30.30
2018-06-04T07:22:50.290Z,29.30
2018-06-04T07:23:50.803Z,31.40
2018-06-04T07:24:50.181Z,30.20
2018-06-04T07:25:50.236Z,30.50
2018-06-04T07:26:50.856Z,29.40
2018-06-04T07:27:50.318Z,30.20
2018-06-04T07:28:50.195Z,28.30
2018-06-04T07:29:50.302Z,28.40
2018-06-04T07:30:51.221Z,30.60
2018-06-04T07:31:50.804Z,29.10
2018-06-04T07:32:50.155Z,29.40
2018-06-04T07:33:50.167Z,30.40
2018-06-04T07:34:50.277Z,31.00
2018-06-04T07:35:50.232Z,31.00
2018-06-04T07:36:50.211Z,28.90
2018-06-04T07:37:50.305Z,30.40
2018-06-04T07:38:50.321Z,30.50
2018-06-04T07:39:50.261Z,30.90
2018-06-04T07:40:50.306Z,29.70
2018-06-04T07:41:50.448Z,29.10
2018-06-04T07:42:50.526Z,30.40
2018-06-04T07:43:50.349Z,31.00
2018-06-04T07:44:50.414Z,30.00
2018-06-04T07:45:50.383Z,30.90
2018-06-04T07:46:50.440Z,30.30
2018-06-04T07:47:50.618Z,29.70
2018-06-04T07:48:50.502Z,30.60
2018-06-04T07:49:51.122Z,29.30
2018-06-04T07:50:50.682Z,31.80
2018-06-04T07:51:50.495Z,30.40
2018-06-04T07:52:50.495Z,31.00
2018-06-04T07:53:50.563Z,29.90
2018-06-04T07:54:50.530Z,30.20
2018-06-04T07:55:50.601Z,30.00
2018-06-04T07:56:51.162Z,29.30
2018-06-04T07:57:50.596Z,31.60
2018-06-04T07:58:50.676Z,30.20
2018-06-04T07:59:50.618Z,31.10
2018-06-04T08:00:50.742Z,30.70
2018-06-04T08:01:50.656Z,30.60
2018-06-04T08:02:50.666Z,28.50
2018-06-04T08:03:50.708Z,28.90
2018-06-04T08:04:50.735Z,28.70
2018-06-04T08:05:50.714Z,29.30
2018-06-04T08:06:50.753Z,29.10
2018-06-04T08:07:50.755Z,29.80
2018-06-04T08:08:50.810Z,29.20
2018-06-04T08:09:50.866Z,29.00
2018-06-04T08:10:50.807Z,28.60
2018-06-04T08:11:52.971Z,30.50
2018-06-04T08:12:51.156Z,29.30
2018-06-04T08:13:51.127Z,30.20
2018-06-04T08:14:50.920Z,29.50
2018-06-04T08:15:50.895Z,30.90
2018-06-04T08:16:50.965Z,30.10
2018-06-04T08:17:51.536Z,29.70
2018-06-04T08:18:51.017Z,31.20
2018-06-04T08:19:51.616Z,29.20
2018-06-04T08:20:51.798Z,30.90
2018-06-04T08:21:51.034Z,30.10
2018-06-04T08:22:51.120Z,29.50
2018-06-04T08:23:51.110Z,29.20
2018-06-04T08:24:51.067Z,27.70
2018-06-04T08:25:51.070Z,27.50
2018-06-04T08:26:51.105Z,28.30
2018-06-04T08:27:51.104Z,27.80
2018-06-04T08:28:51.121Z,26.90
2018-06-04T08:29:51.138Z,25.20
2018-06-04T08:30:51.154Z,23.60
2018-06-04T08:31:51.177Z,28.10
2018-06-04T08:32:51.209Z,28.10
2018-06-04T08:33:51.244Z,27.90
2018-06-04T08:34:51.367Z,28.00
2018-06-04T08:35:51.508Z,27.60
2018-06-04T08:36:51.283Z,27.10
2018-06-04T08:37:51.329Z,28.00
2018-06-04T08:38:51.324Z,27.80
2018-06-04T08:39:51.313Z,25.60
2018-06-04T08:40:51.537Z,27.00
2018-06-04T08:41:51.369Z,27.60
2018-06-04T08:42:51.775Z,27.10
2018-06-04T08:43:51.385Z,26.90
2018-06-04T08:44:51.403Z,27.70
2018-06-04T08:45:51.460Z,27.00
2018-06-04T08:46:51.439Z,28.40
2018-06-04T08:47:51.454Z,29.30
2018-06-04T08:48:51.479Z,28.50
2018-06-04T08:49:51.490Z,27.40
2018-06-04T08:50:51.534Z,26.30
2018-06-04T08:51:51.525Z,25.70
2018-06-04T08:52:51.600Z,25.90
2018-06-04T08:53:51.561Z,26.00
2018-06-04T08:54:51.612Z,24.40
2018-06-04T08:55:51.598Z,25.20
2018-06-04T08:56:51.644Z,25.10
2018-06-04T08:57:51.803Z,25.10
2018-06-04T08:59:52.840Z,22.20
2018-06-04T09:00:52.148Z,21.50
2018-06-04T09:01:51.760Z,23.80
2018-06-04T09:02:51.787Z,23.40
2018-06-04T09:03:51.740Z,24.20
2018-06-04T09:04:51.759Z,23.70
2018-06-04T09:05:51.774Z,25.10
2018-06-04T09:06:52.098Z,24.70
2018-06-04T09:07:51.952Z,25.50
2018-06-04T09:08:51.839Z,25.20
2018-06-04T09:09:52.041Z,25.10
2018-06-04T09:10:53.041Z,24.00
2018-06-04T09:11:52.717Z,23.30
2018-06-04T09:12:53.490Z,22.40
2018-06-04T09:13:52.813Z,23.10
2018-06-04T09:14:51.935Z,24.40
2018-06-04T09:16:52.522Z,23.60
2018-06-04T09:17:52.022Z,24.60
2018-06-04T09:18:52.063Z,25.00
2018-06-04T09:19:52.031Z,23.80
2018-06-04T09:20:52.707Z,24.70
2018-06-04T09:21:52.644Z,25.40
2018-06-04T09:22:52.396Z,24.70
2018-06-04T09:23:53.087Z,25.10
2018-06-04T09:24:52.760Z,26.40
2018-06-04T09:26:53.857Z,25.00
2018-06-04T09:27:53.287Z,23.70
2018-06-04T09:29:53.403Z,26.10
2018-06-04T09:30:53.153Z,25.20
2018-06-04T09:31:52.926Z,25.90
2018-06-04T09:32:53.645Z,28.70
2018-06-04T09:33:53.070Z,26.80
2018-06-04T09:34:53.275Z,24.40
2018-06-04T09:35:53.469Z,25.00
2018-06-04T09:36:52.344Z,25.40
2018-06-04T09:37:52.363Z,25.00
2018-06-04T09:38:52.387Z,23.80
2018-06-04T09:39:52.400Z,22.70
2018-06-04T09:40:52.428Z,21.10
2018-06-04T09:41:52.436Z,21.90
2018-06-04T09:42:52.466Z,21.60
2018-06-04T09:43:52.477Z,21.60
2018-06-04T09:44:52.723Z,23.50
2018-06-04T09:45:52.665Z,21.50
2018-06-04T09:46:52.531Z,20.80
2018-06-04T09:47:52.559Z,22.20
2018-06-04T09:48:52.573Z,21.30
2018-06-04T09:49:52.592Z,21.20
2018-06-04T09:50:52.615Z,20.90
2018-06-04T09:51:52.659Z,21.70
2018-06-04T09:52:52.653Z,21.50
2018-06-04T09:53:52.727Z,19.90
2018-06-04T09:54:52.683Z,19.90
2018-06-04T09:55:52.713Z,18.20
2018-06-04T09:56:52.739Z,20.10
2018-06-04T09:57:52.773Z,21.20
2018-06-04T09:58:52.770Z,20.80
2018-06-04T09:59:52.794Z,19.80
2018-06-04T10:00:52.802Z,19.50
2018-06-04T10:01:52.825Z,18.20
2018-06-04T10:02:52.847Z,18.30
2018-06-04T10:03:52.863Z,17.70
2018-06-04T10:04:52.882Z,15.60
2018-06-04T10:05:52.905Z,14.90
2018-06-04T10:06:52.922Z,15.80
2018-06-04T10:07:52.948Z,15.00
2018-06-04T10:08:52.963Z,15.50
2018-06-04T10:09:52.980Z,15.90
2018-06-04T10:10:53.004Z,17.40
2018-06-04T10:11:53.021Z,17.20
2018-06-04T10:12:53.061Z,16.80
2018-06-04T10:13:53.085Z,15.90
2018-06-04T10:14:53.088Z,15.30
2018-06-04T10:15:53.101Z,22.90
2018-06-04T10:16:53.117Z,24.00
2018-06-04T10:17:53.140Z,23.90
2018-06-04T10:18:53.158Z,24.90
2018-06-04T10:19:53.279Z,26.10
2018-06-04T10:20:53.195Z,25.30
2018-06-04T10:21:53.215Z,26.50
2018-06-04T10:22:53.234Z,25.50
2018-06-04T10:23:53.252Z,26.40
2018-06-04T10:24:53.274Z,26.00
2018-06-04T10:25:53.296Z,26.20
2018-06-04T10:26:53.312Z,25.30
2018-06-04T10:27:53.373Z,26.20
2018-06-04T10:28:53.362Z,27.40
2018-06-04T10:29:53.372Z,27.10
2018-06-04T10:30:53.390Z,28.60
2018-06-04T10:31:53.416Z,27.60
2018-06-04T10:32:53.431Z,27.60
2018-06-04T10:34:53.735Z,26.80
2018-06-04T10:35:54.281Z,27.90
2018-06-04T10:36:53.511Z,28.90
2018-06-04T10:37:53.527Z,28.00
2018-06-04T10:38:53.547Z,29.70
2018-06-04T10:39:53.571Z,29.00
2018-06-04T10:40:53.594Z,29.80
2018-06-04T10:41:53.631Z,30.50
2018-06-04T10:42:53.631Z,29.30
2018-06-04T10:43:53.659Z,29.00
2018-06-04T10:44:53.671Z,30.20
2018-06-04T10:45:53.699Z,29.20
2018-06-04T10:46:53.713Z,30.10
2018-06-04T10:47:53.740Z,29.80
2018-06-04T10:48:53.761Z,30.90
2018-06-04T10:49:53.768Z,31.90
2018-06-04T10:50:53.783Z,30.30
2018-06-04T10:51:53.799Z,31.20
2018-06-04T10:52:53.818Z,32.00
2018-06-04T10:53:53.849Z,30.50
2018-06-04T10:54:53.880Z,29.20
2018-06-04T10:55:53.887Z,29.80
2018-06-04T10:56:53.904Z,29.20
2018-06-04T10:57:53.917Z,29.00
2018-06-04T10:58:53.949Z,27.60
2018-06-04T10:59:53.967Z,27.40
2018-06-04T11:00:53.989Z,28.10
2018-06-04T11:01:53.997Z,26.50
2018-06-04T11:02:54.023Z,26.40
2018-06-04T11:03:54.131Z,25.70
2018-06-04T11:05:54.499Z,26.10
2018-06-04T11:06:54.422Z,27.40
2018-06-04T11:07:54.120Z,27.10
2018-06-04T11:08:54.139Z,26.70
2018-06-04T11:09:54.153Z,26.20
2018-06-04T11:10:54.183Z,27.40
2018-06-04T11:11:54.202Z,26.10
2018-06-04T11:12:54.257Z,26.60
2018-06-04T11:13:54.228Z,26.10
2018-06-04T11:14:54.261Z,26.70
2018-06-04T11:15:54.265Z,28.60
2018-06-04T11:17:54.366Z,25.80
2018-06-04T11:18:54.398Z,29.00
2018-06-04T11:19:54.357Z,28.10
2018-06-04T11:20:54.401Z,28.30
2018-06-04T11:21:54.402Z,26.60
2018-06-04T11:22:54.428Z,26.60
2018-06-04T11:23:54.435Z,28.20
2018-06-04T11:24:54.459Z,27.50
2018-06-04T11:25:54.520Z,28.00
2018-06-04T11:26:54.499Z,27.30
2018-06-04T11:27:54.505Z,27.50
2018-06-04T11:28:54.525Z,26.90
2018-06-04T11:29:54.545Z,26.50
2018-06-04T11:30:54.563Z,26.10
2018-06-04T11:31:54.583Z,27.80
2018-06-04T11:32:54.607Z,27.50
2018-06-04T11:33:54.625Z,27.20
2018-06-04T11:34:54.646Z,25.80
2018-06-04T11:35:54.667Z,26.70
2018-06-04T11:36:54.688Z,27.00
2018-06-04T11:37:54.706Z,26.60
2018-06-04T11:38:54.727Z,24.00
2018-06-04T11:39:54.752Z,24.70
2018-06-04T11:40:54.768Z,24.90
2018-06-04T11:41:54.790Z,23.50
2018-06-04T11:42:54.831Z,24.10
2018-06-04T11:43:54.888Z,26.60
2018-06-04T11:44:54.851Z,25.80
2018-06-04T11:45:54.874Z,26.00
2018-06-04T11:46:54.892Z,24.00
2018-06-04T11:47:54.913Z,24.30
2018-06-04T11:48:54.939Z,23.50
2018-06-04T11:49:54.955Z,23.20
2018-06-04T11:50:54.988Z,24.90
2018-06-04T11:51:54.998Z,23.20
2018-06-04T11:52:55.022Z,24.20
2018-06-04T11:53:55.046Z,25.40
2018-06-04T11:54:55.061Z,25.50
2018-06-04T11:55:55.085Z,24.20
2018-06-04T11:56:55.101Z,23.60
2018-06-04T11:57:55.122Z,24.30
2018-06-04T11:58:55.140Z,23.20
2018-06-04T11:59:55.165Z,23.90
2018-06-04T12:00:55.184Z,23.10
2018-06-04T12:01:55.207Z,24.00
2018-06-04T12:02:55.228Z,23.30
2018-06-04T12:03:55.245Z,24.70
2018-06-04T12:04:55.270Z,24.20
2018-06-04T12:05:55.352Z,23.90
2018-06-04T12:06:55.315Z,22.40
2018-06-04T12:07:55.335Z,23.70
2018-06-04T12:08:55.351Z,22.50
2018-06-04T12:09:55.380Z,23.80
2018-06-04T12:10:55.407Z,23.90
2018-06-04T12:11:55.723Z,25.70
2018-06-04T12:12:55.434Z,24.00
2018-06-04T12:13:55.455Z,23.70
2018-06-04T12:14:55.474Z,24.30
2018-06-04T12:15:55.496Z,25.30
2018-06-04T12:16:55.524Z,24.00
2018-06-04T12:17:55.537Z,24.60
2018-06-04T12:18:55.558Z,24.40
2018-06-04T12:19:55.583Z,24.90
2018-06-04T12:20:55.600Z,25.00
2018-06-04T12:21:55.625Z,25.40
2018-06-04T12:22:55.647Z,25.20
2018-06-04T12:23:55.661Z,23.70
2018-06-04T12:24:55.681Z,22.70
2018-06-04T12:25:55.705Z,21.10
2018-06-04T12:26:55.726Z,24.30
2018-06-04T12:27:55.753Z,22.30
2018-06-04T12:28:55.768Z,24.40
2018-06-04T12:29:55.787Z,24.30
2018-06-04T12:30:55.815Z,23.00
2018-06-04T12:31:55.834Z,21.80
2018-06-04T12:32:55.853Z,22.20
2018-06-04T12:33:55.877Z,22.90
2018-06-04T12:34:55.900Z,22.70
2018-06-04T12:35:55.916Z,23.80
2018-06-04T12:36:55.936Z,24.90
2018-06-04T12:37:55.958Z,22.30
2018-06-04T12:38:55.981Z,24.10
2018-06-04T12:39:56.004Z,23.00
2018-06-04T12:40:56.025Z,23.30
2018-06-04T12:41:56.054Z,21.90
2018-06-04T12:42:56.080Z,24.00
2018-06-04T12:43:56.098Z,21.80
2018-06-04T12:44:56.120Z,22.20
2018-06-04T12:45:56.147Z,22.40
2018-06-04T12:46:56.168Z,24.80
2018-06-04T12:47:56.191Z,23.90
2018-06-04T12:48:56.218Z,21.50
2018-06-04T12:49:56.238Z,21.90
2018-06-04T12:50:56.272Z,20.70
2018-06-04T12:51:56.304Z,21.30
2018-06-04T12:52:58.104Z,19.40
2018-06-04T12:53:56.827Z,20.80
2018-06-04T12:54:57.458Z,22.20
2018-06-04T12:55:56.871Z,20.10
2018-06-04T12:56:56.802Z,21.70
2018-06-04T12:57:56.973Z,20.10
2018-06-04T12:58:56.470Z,20.30
2018-06-04T12:59:56.491Z,21.40
2018-06-04T13:00:56.523Z,20.10
2018-06-04T13:01:56.547Z,20.70
2018-06-04T13:02:56.605Z,21.20
2018-06-04T13:03:56.600Z,18.50
2018-06-04T13:04:56.700Z,18.20
2018-06-04T13:05:56.651Z,18.20